createdAt,value
2022-08-26T00:00:06.637Z,16.10
2022-08-26T00:04:10.253Z,16.10
2022-08-26T00:08:15.401Z,16.10
2022-08-26T00:12:18.733Z,16.00
2022-08-26T00:16:41.000Z,16.00
2022-08-26T00:20:51.915Z,16.00
2022-08-26T00:24:55.125Z,16.00
2022-08-26T00:28:58.366Z,16.00
2022-08-26T00:33:04.534Z,16.00
2022-08-26T00:37:11.642Z,15.90
2022-08-26T00:41:21.134Z,16.00
2022-08-26T00:45:25.010Z,16.00
2022-08-26T00:49:35.138Z,15.90
2022-08-26T00:53:43.140Z,15.90
2022-08-26T00:57:47.338Z,15.80
2022-08-26T01:01:50.706Z,15.80
2022-08-26T01:05:58.229Z,15.80
2022-08-26T01:10:03.210Z,15.80
2022-08-26T01:14:09.228Z,15.70
2022-08-26T01:18:13.988Z,15.70
2022-08-26T01:22:22.083Z,15.70
2022-08-26T01:26:36.057Z,15.60
2022-08-26T01:30:41.258Z,15.60
2022-08-26T01:34:44.550Z,15.60
2022-08-26T01:38:48.075Z,15.50
2022-08-26T01:42:53.796Z,15.60
2022-08-26T01:46:59.586Z,15.60
2022-08-26T01:51:04.556Z,15.50
2022-08-26T01:55:11.370Z,15.50
2022-08-26T01:59:17.413Z,15.40
2022-08-26T02:03:22.664Z,15.40
2022-08-26T02:07:26.927Z,15.40
2022-08-26T02:11:30.577Z,15.40
2022-08-26T02:15:35.362Z,15.40
2022-08-26T02:19:42.910Z,15.30
2022-08-26T02:23:46.488Z,15.30
2022-08-26T02:27:49.758Z,15.30
2022-08-26T02:31:55.817Z,15.30
2022-08-26T02:35:59.377Z,15.30
2022-08-26T02:40:02.807Z,15.30
2022-08-26T02:44:07.313Z,15.30
2022-08-26T02:48:15.947Z,15.20
2022-08-26T02:52:19.333Z,15.30
2022-08-26T02:56:22.607Z,15.20
2022-08-26T03:00:26.120Z,15.20
2022-08-26T03:04:33.453Z,15.10
2022-08-26T03:08:36.790Z,15.20
2022-08-26T03:12:41.117Z,15.10
2022-08-26T03:16:44.431Z,15.10
2022-08-26T03:20:53.228Z,15.10
2022-08-26T03:24:56.489Z,15.10
2022-08-26T03:29:17.255Z,15.10
2022-08-26T03:33:22.468Z,15.00
2022-08-26T03:37:27.116Z,15.10
2022-08-26T03:41:32.846Z,15.00
2022-08-26T03:45:36.818Z,15.00
2022-08-26T03:49:40.830Z,15.00
2022-08-26T03:53:46.000Z,15.00
2022-08-26T03:57:49.342Z,15.00
2022-08-26T04:01:53.712Z,15.00
2022-08-26T04:05:57.044Z,15.00
2022-08-26T04:10:02.276Z,14.90
2022-08-26T04:14:07.982Z,14.90
2022-08-26T04:18:11.492Z,14.90
2022-08-26T04:22:15.563Z,15.00
2022-08-26T04:26:28.843Z,15.00
2022-08-26T04:30:32.892Z,15.00
2022-08-26T04:34:37.873Z,15.00
2022-08-26T04:38:42.775Z,15.00
2022-08-26T04:42:47.423Z,15.10
2022-08-26T04:46:51.002Z,15.10
2022-08-26T04:50:54.494Z,15.10
2022-08-26T04:54:57.979Z,15.10
2022-08-26T04:59:03.877Z,15.20
2022-08-26T05:03:10.990Z,15.20
2022-08-26T05:07:14.675Z,15.30
2022-08-26T05:11:22.034Z,15.40
2022-08-26T05:15:26.906Z,15.40
2022-08-26T05:19:46.777Z,15.50
2022-08-26T05:23:51.737Z,15.60
2022-08-26T05:27:55.121Z,15.70
2022-08-26T05:32:00.887Z,15.80
2022-08-26T05:36:09.366Z,15.90
2022-08-26T05:40:13.548Z,16.10
2022-08-26T05:44:18.950Z,16.20
2022-08-26T05:48:24.442Z,16.20
2022-08-26T05:52:27.938Z,16.40
2022-08-26T05:56:31.398Z,16.60
2022-08-26T06:00:34.810Z,16.70
2022-08-26T06:04:40.944Z,16.90
2022-08-26T06:08:44.695Z,17.00
2022-08-26T06:12:47.905Z,17.20
2022-08-26T06:16:51.173Z,17.30
2022-08-26T06:20:57.896Z,17.40
2022-08-26T06:25:19.441Z,17.70
2022-08-26T06:29:26.138Z,17.80
2022-08-26T06:33:29.773Z,18.10
2022-08-26T06:37:34.491Z,18.20
2022-08-26T06:41:43.251Z,18.40
2022-08-26T06:45:47.751Z,18.60
2022-08-26T06:49:51.397Z,18.80
2022-08-26T06:53:59.617Z,19.00
2022-08-26T06:58:03.732Z,19.20
2022-08-26T07:02:08.149Z,19.50
2022-08-26T07:06:11.502Z,19.80
2022-08-26T07:10:16.575Z,20.00
2022-08-26T07:14:21.466Z,20.20
2022-08-26T07:18:25.276Z,20.60
2022-08-26T07:22:29.436Z,20.90
2022-08-26T07:26:35.290Z,21.20
2022-08-26T07:30:41.903Z,21.40
2022-08-26T07:34:45.723Z,21.70
2022-08-26T07:38:49.420Z,22.00
2022-08-26T07:42:55.005Z,22.40
2022-08-26T07:46:58.931Z,22.80
2022-08-26T07:51:02.708Z,23.00
2022-08-26T07:55:09.801Z,23.40
2022-08-26T07:59:15.257Z,23.80
2022-08-26T08:03:19.048Z,24.20
2022-08-26T08:07:35.025Z,24.40
2022-08-26T08:11:42.756Z,24.60
2022-08-26T08:15:48.585Z,25.10
2022-08-26T08:19:53.776Z,25.60
2022-08-26T08:23:58.537Z,26.30
2022-08-26T08:28:02.178Z,26.50
2022-08-26T08:32:11.522Z,27.00
2022-08-26T08:36:18.492Z,27.00
2022-08-26T08:40:26.390Z,27.90
2022-08-26T08:44:30.001Z,28.80
2022-08-26T08:48:39.513Z,29.60
2022-08-26T08:52:47.145Z,31.10
2022-08-26T08:56:54.196Z,32.50
2022-08-26T09:01:07.077Z,34.10
2022-08-26T09:05:21.646Z,35.00
2022-08-26T09:09:31.907Z,35.70
2022-08-26T09:13:35.942Z,36.10
2022-08-26T09:17:49.438Z,36.80
2022-08-26T09:21:59.166Z,36.40
2022-08-26T09:26:04.617Z,36.60
2022-08-26T09:30:11.497Z,36.40
2022-08-26T09:34:18.240Z,36.30
2022-08-26T09:38:27.975Z,35.80
2022-08-26T09:42:31.428Z,35.20
2022-08-26T09:46:36.695Z,34.90
2022-08-26T09:50:50.598Z,35.50
2022-08-26T09:55:07.125Z,36.30
2022-08-26T09:59:12.114Z,35.50
2022-08-26T10:03:26.436Z,36.20
2022-08-26T10:07:40.553Z,37.10
2022-08-26T10:11:49.266Z,36.60
2022-08-26T10:16:00.661Z,36.80
2022-08-26T10:20:22.696Z,36.60
2022-08-26T10:24:32.702Z,37.30
2022-08-26T10:28:42.593Z,37.60
2022-08-26T10:32:52.696Z,37.20
2022-08-26T10:37:15.590Z,37.30
2022-08-26T10:41:28.001Z,37.40
2022-08-26T10:45:39.300Z,37.10
2022-08-26T10:49:45.521Z,37.00
2022-08-26T10:53:55.951Z,37.00
2022-08-26T10:58:09.093Z,36.90
2022-08-26T11:02:25.317Z,37.20
2022-08-26T11:06:31.417Z,36.50
2022-08-26T11:11:04.795Z,36.70
2022-08-26T11:15:09.980Z,37.10
2022-08-26T11:20:01.228Z,36.60
2022-08-26T11:24:05.544Z,39.00
2022-08-26T11:28:09.017Z,38.40
2022-08-26T11:32:26.067Z,38.10
2022-08-26T11:36:59.977Z,39.40
2022-08-26T11:41:12.686Z,40.90
2022-08-26T11:45:23.912Z,41.20
2022-08-26T11:49:28.394Z,40.10
2022-08-26T11:53:37.217Z,41.10
2022-08-26T11:58:23.377Z,41.60
2022-08-26T12:02:30.073Z,41.80
2022-08-26T12:06:41.975Z,41.00
2022-08-26T12:10:50.079Z,39.60
2022-08-26T12:15:12.229Z,38.20
2022-08-26T12:19:41.734Z,37.10
2022-08-26T12:24:23.659Z,39.10
2022-08-26T12:28:32.803Z,39.30
2022-08-26T12:32:39.223Z,38.70
2022-08-26T12:37:01.190Z,38.00
2022-08-26T12:41:04.499Z,39.40
2022-08-26T12:45:10.499Z,38.10
2022-08-26T12:49:18.591Z,39.90
2022-08-26T12:53:25.014Z,38.30
2022-08-26T12:57:31.705Z,39.50
2022-08-26T13:01:43.785Z,39.00
2022-08-26T13:05:47.367Z,40.30
2022-08-26T13:09:52.039Z,41.10
2022-08-26T13:13:58.722Z,42.20
2022-08-26T13:18:04.259Z,41.70
2022-08-26T13:22:07.758Z,42.20
2022-08-26T13:26:11.096Z,41.70
2022-08-26T13:30:15.148Z,42.40
2022-08-26T13:34:21.387Z,42.90
2022-08-26T13:38:33.393Z,43.20
2022-08-26T13:42:37.423Z,42.80
2022-08-26T13:46:53.007Z,41.50
2022-08-26T13:50:57.802Z,41.40
2022-08-26T13:55:01.519Z,41.80
2022-08-26T13:59:06.554Z,41.40
2022-08-26T14:03:13.391Z,41.80
2022-08-26T14:07:18.634Z,42.30
2022-08-26T14:11:22.546Z,42.00
2022-08-26T14:15:26.699Z,42.60
2022-08-26T14:19:33.099Z,42.20
2022-08-26T14:23:37.848Z,42.40
2022-08-26T14:27:41.940Z,43.00
2022-08-26T14:31:45.643Z,44.00
2022-08-26T14:35:49.099Z,43.60
2022-08-26T14:39:54.899Z,42.40
2022-08-26T14:44:03.000Z,42.10
2022-08-26T14:48:06.504Z,41.80
2022-08-26T14:52:11.527Z,41.50
2022-08-26T14:56:17.723Z,41.50
2022-08-26T15:00:21.577Z,42.10
2022-08-26T15:04:27.465Z,42.70
2022-08-26T15:08:33.477Z,43.20
2022-08-26T15:12:41.698Z,41.30
2022-08-26T15:16:46.084Z,38.80
2022-08-26T15:20:50.256Z,39.50
2022-08-26T15:24:54.775Z,40.60
2022-08-26T15:29:04.858Z,40.20
2022-08-26T15:33:15.336Z,37.80
2022-08-26T15:37:20.559Z,35.60
2022-08-26T15:41:26.230Z,34.00
2022-08-26T15:45:34.418Z,32.40
2022-08-26T15:49:38.054Z,31.80
2022-08-26T15:53:42.425Z,31.20
2022-08-26T15:57:46.346Z,30.50
2022-08-26T16:01:54.498Z,30.10
2022-08-26T16:05:59.291Z,30.00
2022-08-26T16:10:02.815Z,29.60
2022-08-26T16:14:08.499Z,29.40
2022-08-26T16:18:14.052Z,29.00
2022-08-26T16:22:18.120Z,28.80
2022-08-26T16:26:25.379Z,28.40
2022-08-26T16:30:30.425Z,28.10
2022-08-26T16:34:35.240Z,27.80
2022-08-26T16:38:39.639Z,27.40
2022-08-26T16:42:43.176Z,27.30
2022-08-26T16:46:47.696Z,26.90
2022-08-26T16:50:55.623Z,26.60
2022-08-26T16:54:59.691Z,26.20
2022-08-26T16:59:03.632Z,25.90
2022-08-26T17:03:07.071Z,25.50
2022-08-26T17:07:12.445Z,25.20
2022-08-26T17:11:16.393Z,25.00
2022-08-26T17:15:20.483Z,24.70
2022-08-26T17:19:24.012Z,24.50
2022-08-26T17:23:28.913Z,24.20
2022-08-26T17:27:32.500Z,24.00
2022-08-26T17:31:36.303Z,23.80
2022-08-26T17:35:39.694Z,23.60
2022-08-26T17:39:45.148Z,23.40
2022-08-26T17:43:48.685Z,23.30
2022-08-26T17:47:52.416Z,23.10
2022-08-26T17:51:58.537Z,22.90
2022-08-26T17:56:06.102Z,22.70
2022-08-26T18:00:14.552Z,22.60
2022-08-26T18:04:18.103Z,22.30
2022-08-26T18:08:22.071Z,22.20
2022-08-26T18:12:26.840Z,22.10
2022-08-26T18:16:38.230Z,22.00
2022-08-26T18:20:43.310Z,21.80
2022-08-26T18:24:55.411Z,21.70
2022-08-26T18:29:03.944Z,21.60
2022-08-26T18:33:07.256Z,21.50
2022-08-26T18:41:14.327Z,21.30
2022-08-26T18:45:19.221Z,21.20
2022-08-26T18:49:22.821Z,21.10
2022-08-26T18:53:26.670Z,21.00
2022-08-26T18:57:30.014Z,20.90
2022-08-26T19:01:36.077Z,20.80
2022-08-26T19:05:40.736Z,20.80
2022-08-26T19:09:44.351Z,20.70
2022-08-26T19:13:48.554Z,20.60
2022-08-26T19:17:56.780Z,20.50
2022-08-26T19:22:00.612Z,20.40
2022-08-26T19:26:06.007Z,20.30
2022-08-26T19:30:11.512Z,20.20
2022-08-26T19:34:18.239Z,20.20
2022-08-26T19:38:24.512Z,20.10
2022-08-26T19:42:31.702Z,20.00
2022-08-26T19:46:36.258Z,20.00
2022-08-26T19:50:42.430Z,19.90
2022-08-26T19:54:45.995Z,19.80
2022-08-26T19:58:50.072Z,19.80
2022-08-26T20:02:54.148Z,19.70
2022-08-26T20:07:00.615Z,19.60
2022-08-26T20:11:06.165Z,19.60
2022-08-26T20:15:11.940Z,19.50
2022-08-26T20:19:37.249Z,19.50
2022-08-26T20:23:44.007Z,19.40
2022-08-26T20:27:47.613Z,19.30
2022-08-26T20:31:52.879Z,19.30
2022-08-26T20:35:56.559Z,19.20
2022-08-26T20:40:01.556Z,19.10
2022-08-26T20:44:10.811Z,19.10
2022-08-26T20:48:21.211Z,19.00
2022-08-26T20:52:29.216Z,19.00
2022-08-26T20:56:34.200Z,18.90
2022-08-26T21:00:39.798Z,18.90
2022-08-26T21:04:43.158Z,18.90
2022-08-26T21:08:48.576Z,18.80
2022-08-26T21:12:53.364Z,18.80
2022-08-26T21:16:56.759Z,18.70
2022-08-26T21:21:00.175Z,18.60
2022-08-26T21:25:03.775Z,18.60
2022-08-26T21:29:09.997Z,18.60
2022-08-26T21:33:13.363Z,18.60
2022-08-26T21:37:17.120Z,18.50
2022-08-26T21:41:22.484Z,18.50
2022-08-26T21:45:27.196Z,18.40
2022-08-26T21:49:30.519Z,18.40
2022-08-26T21:53:33.921Z,18.30
2022-08-26T21:57:37.241Z,18.30
2022-08-26T22:01:42.879Z,18.30
2022-08-26T22:05:47.496Z,18.20
2022-08-26T22:09:50.756Z,18.20
2022-08-26T22:13:55.313Z,18.10
2022-08-26T22:18:00.015Z,18.10
2022-08-26T22:22:03.826Z,18.00
2022-08-26T22:26:09.063Z,18.00
2022-08-26T22:30:12.903Z,17.90
2022-08-26T22:34:19.683Z,17.90
2022-08-26T22:38:24.188Z,17.90
2022-08-26T22:42:27.552Z,17.80
2022-08-26T22:46:31.818Z,17.80
2022-08-26T22:50:36.584Z,17.80
2022-08-26T22:54:39.893Z,17.80
2022-08-26T22:58:43.348Z,17.70
2022-08-26T23:02:46.661Z,17.70
2022-08-26T23:06:51.470Z,17.60
2022-08-26T23:10:55.107Z,17.60
2022-08-26T23:14:58.478Z,17.60
2022-08-26T23:19:01.736Z,17.50
2022-08-26T23:23:06.600Z,17.50
2022-08-26T23:27:10.343Z,17.40
2022-08-26T23:31:14.459Z,17.40
2022-08-26T23:35:21.735Z,17.40
2022-08-26T23:39:27.100Z,17.30
2022-08-26T23:43:30.606Z,17.30
2022-08-26T23:47:34.109Z,17.30
2022-08-26T23:52:01.218Z,17.30
2022-08-26T23:56:06.217Z,17.30
